createdAt,value
2018-08-24T00:00:24.765Z,18.99
2018-08-24T00:01:24.767Z,18.99
2018-08-24T00:02:24.769Z,19.02
2018-08-24T00:03:24.772Z,18.89
2018-08-24T00:04:24.777Z,18.98
2018-08-24T00:05:24.775Z,18.93
2018-08-24T00:06:24.776Z,19.07
2018-08-24T00:07:24.880Z,18.95
2018-08-24T00:08:24.785Z,18.99
2018-08-24T00:09:24.790Z,18.98
2018-08-24T00:10:24.786Z,18.88
2018-08-24T00:11:24.787Z,18.83
2018-08-24T00:12:24.789Z,18.84
2018-08-24T00:13:24.795Z,18.86
2018-08-24T00:14:24.793Z,18.83
2018-08-24T00:15:24.797Z,18.80
2018-08-24T00:16:24.835Z,18.77
2018-08-24T00:17:24.800Z,18.75
2018-08-24T00:18:24.802Z,18.70
2018-08-24T00:19:24.804Z,18.68
2018-08-24T00:20:24.806Z,18.80
2018-08-24T00:21:24.807Z,18.70
2018-08-24T00:22:24.813Z,18.70
2018-08-24T00:23:24.811Z,18.65
2018-08-24T00:24:24.818Z,18.52
2018-08-24T00:25:24.814Z,18.59
2018-08-24T00:26:24.817Z,18.58
2018-08-24T00:27:24.820Z,18.56
2018-08-24T00:28:24.822Z,18.50
2018-08-24T00:29:24.823Z,18.44
2018-08-24T00:30:24.829Z,18.38
2018-08-24T00:31:24.827Z,18.41
2018-08-24T00:32:24.830Z,18.40
2018-08-24T00:33:24.829Z,18.34
2018-08-24T00:34:24.833Z,18.34
2018-08-24T00:35:24.833Z,18.26
2018-08-24T00:36:24.836Z,18.29
2018-08-24T00:37:24.837Z,18.20
2018-08-24T00:38:24.837Z,18.29
2018-08-24T00:39:24.840Z,18.29
2018-08-24T00:40:24.841Z,18.18
2018-08-24T00:41:24.844Z,18.23
2018-08-24T00:42:24.845Z,18.22
2018-08-24T00:43:24.846Z,18.26
2018-08-24T00:44:24.849Z,18.26
2018-08-24T00:45:24.849Z,18.29
2018-08-24T00:46:24.851Z,18.26
2018-08-24T00:47:24.855Z,18.33
2018-08-24T00:48:24.855Z,18.33
2018-08-24T00:49:24.856Z,18.34
2018-08-24T00:50:24.858Z,18.31
2018-08-24T00:51:24.860Z,18.23
2018-08-24T00:52:24.861Z,18.19
2018-08-24T00:53:24.863Z,18.23
2018-08-24T00:54:24.864Z,18.19
2018-08-24T00:55:24.866Z,18.10
2018-08-24T00:56:24.871Z,18.22
2018-08-24T00:57:24.870Z,18.23
2018-08-24T00:58:24.874Z,18.20
2018-08-24T00:59:24.874Z,18.03
2018-08-24T01:00:24.875Z,18.07
2018-08-24T01:01:24.878Z,18.05
2018-08-24T01:02:24.877Z,18.07
2018-08-24T01:03:24.881Z,18.00
2018-08-24T01:04:24.880Z,17.98
2018-08-24T01:05:24.882Z,17.95
2018-08-24T01:06:24.885Z,17.97
2018-08-24T01:07:24.912Z,17.94
2018-08-24T01:08:24.887Z,18.00
2018-08-24T01:09:24.887Z,18.07
2018-08-24T01:10:24.889Z,17.97
2018-08-24T01:11:24.891Z,17.97
2018-08-24T01:12:24.893Z,17.92
2018-08-24T01:13:24.893Z,17.86
2018-08-24T01:14:24.896Z,17.90
2018-08-24T01:15:24.898Z,17.86
2018-08-24T01:16:24.901Z,17.76
2018-08-24T01:17:24.900Z,17.68
2018-08-24T01:18:24.901Z,17.71
2018-08-24T01:19:24.902Z,17.56
2018-08-24T01:20:24.905Z,17.45
2018-08-24T01:21:24.906Z,17.56
2018-08-24T01:22:24.907Z,17.45
2018-08-24T01:23:24.908Z,17.44
2018-08-24T01:24:24.911Z,17.45
2018-08-24T01:25:24.911Z,17.42
2018-08-24T01:26:24.913Z,17.27
2018-08-24T01:27:24.914Z,17.29
2018-08-24T01:28:24.916Z,17.39
2018-08-24T01:29:24.917Z,17.45
2018-08-24T01:30:24.918Z,17.39
2018-08-24T01:31:24.922Z,17.51
2018-08-24T01:32:24.920Z,17.38
2018-08-24T01:33:24.922Z,17.29
2018-08-24T01:34:24.923Z,17.27
2018-08-24T01:35:24.924Z,17.20
2018-08-24T01:36:24.927Z,17.20
2018-08-24T01:37:24.927Z,17.23
2018-08-24T01:38:24.926Z,17.16
2018-08-24T01:39:24.930Z,17.24
2018-08-24T01:40:24.931Z,17.20
2018-08-24T01:41:24.931Z,17.26
2018-08-24T01:42:24.933Z,17.24
2018-08-24T01:43:24.936Z,17.31
2018-08-24T01:44:24.935Z,17.34
2018-08-24T01:45:24.937Z,17.31
2018-08-24T01:46:24.938Z,17.39
2018-08-24T01:47:24.938Z,17.44
2018-08-24T01:48:24.939Z,17.52
2018-08-24T01:49:24.940Z,17.54
2018-08-24T01:50:24.942Z,17.59
2018-08-24T01:51:24.944Z,17.59
2018-08-24T01:52:24.945Z,17.64
2018-08-24T01:53:24.944Z,17.63
2018-08-24T01:54:24.979Z,17.44
2018-08-24T01:55:24.947Z,17.42
2018-08-24T01:56:24.950Z,17.39
2018-08-24T01:57:24.951Z,17.39
2018-08-24T01:58:24.952Z,17.29
2018-08-24T01:59:24.953Z,17.38
2018-08-24T02:00:24.955Z,17.36
2018-08-24T02:01:24.955Z,17.31
2018-08-24T02:02:24.961Z,17.19
2018-08-24T02:03:24.957Z,17.23
2018-08-24T02:04:24.960Z,17.19
2018-08-24T02:05:24.964Z,17.06
2018-08-24T02:06:24.961Z,16.91
2018-08-24T02:07:24.963Z,17.06
2018-08-24T02:08:24.967Z,16.97
2018-08-24T02:09:24.965Z,17.04
2018-08-24T02:10:24.967Z,17.02
2018-08-24T02:11:24.967Z,17.05
2018-08-24T02:12:24.969Z,17.04
2018-08-24T02:13:24.970Z,17.04
2018-08-24T02:14:24.987Z,16.97
2018-08-24T02:15:24.972Z,17.01
2018-08-24T02:16:24.980Z,16.99
2018-08-24T02:17:24.974Z,16.90
2018-08-24T02:18:24.975Z,16.99
2018-08-24T02:19:24.987Z,17.06
2018-08-24T02:20:24.978Z,16.99
2018-08-24T02:21:24.977Z,16.97
2018-08-24T02:22:24.979Z,16.86
2018-08-24T02:23:24.979Z,16.94
2018-08-24T02:24:24.983Z,16.87
2018-08-24T02:25:24.982Z,16.86
2018-08-24T02:26:24.985Z,16.65
2018-08-24T02:27:24.985Z,16.66
2018-08-24T02:28:24.987Z,16.65
2018-08-24T02:29:24.986Z,16.61
2018-08-24T02:30:24.988Z,16.60
2018-08-24T02:31:24.990Z,16.57
2018-08-24T02:32:24.991Z,16.43
2018-08-24T02:33:24.991Z,16.46
2018-08-24T02:34:24.991Z,16.47
2018-08-24T02:35:24.993Z,16.42
2018-08-24T02:36:24.998Z,16.47
2018-08-24T02:37:24.993Z,16.54
2018-08-24T02:38:24.995Z,16.47
2018-08-24T02:39:24.997Z,16.42
2018-08-24T02:40:24.998Z,16.47
2018-08-24T02:41:24.997Z,16.42
2018-08-24T02:42:25.000Z,16.41
2018-08-24T02:43:25.000Z,16.47
2018-08-24T02:44:25.001Z,16.50
2018-08-24T02:45:25.001Z,16.50
2018-08-24T02:46:25.002Z,16.51
2018-08-24T02:47:25.003Z,16.49
2018-08-24T02:48:25.003Z,16.47
2018-08-24T02:49:25.005Z,16.43
2018-08-24T02:50:25.004Z,16.28
2018-08-24T02:51:25.007Z,16.26
2018-08-24T02:52:25.008Z,16.39
2018-08-24T02:53:25.008Z,16.46
2018-08-24T02:54:25.008Z,16.39
2018-08-24T02:55:25.009Z,16.41
2018-08-24T02:56:25.016Z,16.36
2018-08-24T02:57:25.008Z,16.36
2018-08-24T02:58:25.012Z,16.43
2018-08-24T02:59:25.022Z,16.49
2018-08-24T03:00:25.013Z,16.47
2018-08-24T03:01:25.012Z,16.43
2018-08-24T03:02:25.017Z,16.49
2018-08-24T03:03:25.014Z,16.49
2018-08-24T03:04:25.015Z,16.51
2018-08-24T03:05:25.098Z,16.57
2018-08-24T03:06:25.015Z,16.60
2018-08-24T03:07:25.018Z,16.64
2018-08-24T03:08:25.090Z,16.60
2018-08-24T03:09:25.018Z,16.68
2018-08-24T03:10:25.019Z,16.65
2018-08-24T03:11:25.020Z,16.68
2018-08-24T03:12:25.022Z,16.64
2018-08-24T03:13:25.021Z,16.74
2018-08-24T03:14:25.041Z,16.71
2018-08-24T03:15:25.022Z,16.72
2018-08-24T03:16:25.095Z,16.76
2018-08-24T03:17:25.028Z,16.74
2018-08-24T03:18:25.025Z,16.74
2018-08-24T03:19:25.027Z,16.75
2018-08-24T03:20:25.028Z,16.79
2018-08-24T03:21:25.027Z,16.71
2018-08-24T03:22:25.028Z,16.69
2018-08-24T03:23:25.031Z,16.75
2018-08-24T03:24:25.030Z,16.78
2018-08-24T03:25:25.031Z,16.79
2018-08-24T03:26:25.032Z,16.84
2018-08-24T03:27:25.033Z,16.89
2018-08-24T03:28:25.036Z,16.79
2018-08-24T03:29:25.034Z,16.75
2018-08-24T03:30:25.035Z,16.76
2018-08-24T03:31:25.047Z,16.76
2018-08-24T03:32:25.038Z,16.81
2018-08-24T03:33:25.037Z,16.86
2018-08-24T03:34:25.042Z,16.84
2018-08-24T03:35:25.040Z,16.87
2018-08-24T03:36:25.041Z,16.89
2018-08-24T03:37:25.041Z,16.84
2018-08-24T03:38:25.041Z,16.89
2018-08-24T03:39:25.043Z,16.83
2018-08-24T03:40:25.043Z,16.84
2018-08-24T03:41:25.046Z,16.83
2018-08-24T03:42:25.046Z,16.84
2018-08-24T03:43:25.047Z,16.87
2018-08-24T03:44:25.047Z,16.93
2018-08-24T03:45:25.048Z,16.91
2018-08-24T03:46:25.050Z,16.86
2018-08-24T03:47:25.049Z,16.83
2018-08-24T03:48:25.052Z,16.86
2018-08-24T03:49:25.054Z,16.90
2018-08-24T03:50:25.053Z,16.86
2018-08-24T03:51:25.053Z,16.86
2018-08-24T03:52:25.055Z,16.86
2018-08-24T03:53:25.073Z,16.96
2018-08-24T03:54:25.056Z,16.97
2018-08-24T03:55:25.057Z,17.02
2018-08-24T03:56:25.058Z,17.04
2018-08-24T03:57:25.059Z,17.02
2018-08-24T03:58:25.060Z,17.09
2018-08-24T03:59:25.061Z,17.11
2018-08-24T04:00:25.062Z,17.12
2018-08-24T04:01:25.062Z,17.16
2018-08-24T04:02:25.063Z,17.15
2018-08-24T04:03:25.064Z,17.11
2018-08-24T04:04:25.066Z,17.20
2018-08-24T04:05:25.065Z,17.16
2018-08-24T04:06:25.067Z,17.20
2018-08-24T04:07:25.072Z,17.23
2018-08-24T04:08:25.072Z,17.14
2018-08-24T04:09:25.069Z,17.14
2018-08-24T04:10:25.070Z,17.14
2018-08-24T04:11:25.070Z,17.19
2018-08-24T04:12:25.072Z,17.26
2018-08-24T04:13:25.072Z,17.23
2018-08-24T04:14:25.099Z,17.22
2018-08-24T04:15:25.073Z,17.15
2018-08-24T04:16:25.074Z,17.16
2018-08-24T04:17:25.076Z,17.08
2018-08-24T04:18:25.075Z,17.06
2018-08-24T04:19:25.133Z,17.08
2018-08-24T04:20:25.081Z,17.04
2018-08-24T04:21:25.077Z,17.06
2018-08-24T04:22:25.078Z,17.09
2018-08-24T04:23:25.078Z,17.11
2018-08-24T04:24:25.081Z,17.08
2018-08-24T04:25:25.079Z,17.12
2018-08-24T04:26:25.081Z,17.15
2018-08-24T04:27:25.082Z,17.19
2018-08-24T04:28:25.083Z,17.19
2018-08-24T04:29:25.081Z,17.16
2018-08-24T04:30:25.083Z,17.27
2018-08-24T04:31:25.084Z,17.24
2018-08-24T04:32:25.084Z,17.22
2018-08-24T04:33:25.091Z,17.22
2018-08-24T04:34:25.109Z,17.20
2018-08-24T04:35:25.088Z,17.20
2018-08-24T04:36:25.088Z,17.20
2018-08-24T04:37:25.086Z,17.16
2018-08-24T04:38:25.088Z,17.23
2018-08-24T04:39:25.089Z,17.16
2018-08-24T04:40:25.152Z,17.19
2018-08-24T04:41:25.090Z,17.22
2018-08-24T04:42:25.103Z,17.23
2018-08-24T04:43:25.092Z,17.16
2018-08-24T04:44:25.093Z,17.23
2018-08-24T04:45:25.118Z,17.20
2018-08-24T04:46:25.092Z,17.27
2018-08-24T04:47:25.096Z,17.22
2018-08-24T04:48:25.095Z,17.23
2018-08-24T04:49:25.095Z,17.14
2018-08-24T04:50:25.096Z,17.19
2018-08-24T04:51:25.151Z,17.24
2018-08-24T04:52:25.114Z,17.16
2018-08-24T04:53:25.096Z,17.24
2018-08-24T04:54:25.098Z,17.24
2018-08-24T04:55:25.097Z,17.29
2018-08-24T04:57:25.099Z,17.27
2018-08-24T04:58:25.144Z,17.29
2018-08-24T04:59:25.102Z,17.31
2018-08-24T05:00:25.103Z,17.29
2018-08-24T05:01:25.101Z,17.36
2018-08-24T05:02:25.101Z,17.33
2018-08-24T05:03:25.100Z,17.30
2018-08-24T05:04:27.724Z,17.46
2018-08-24T05:05:25.102Z,17.33
2018-08-24T05:06:25.102Z,17.30
2018-08-24T05:07:25.104Z,17.30
2018-08-24T05:08:25.103Z,17.34
2018-08-24T05:09:25.102Z,17.26
2018-08-24T05:10:25.104Z,17.27
2018-08-24T05:11:25.109Z,17.26
2018-08-24T05:12:25.105Z,17.27
2018-08-24T05:13:25.106Z,17.27
2018-08-24T05:14:25.108Z,17.30
2018-08-24T05:15:25.107Z,17.22
2018-08-24T05:16:25.111Z,17.30
2018-08-24T05:17:25.108Z,17.27
2018-08-24T05:18:25.109Z,17.31
2018-08-24T05:19:25.113Z,17.26
2018-08-24T05:20:25.112Z,17.29
2018-08-24T05:21:25.140Z,17.29
2018-08-24T05:22:25.110Z,17.24
2018-08-24T05:23:25.111Z,17.30
2018-08-24T05:24:25.113Z,17.27
2018-08-24T05:25:25.111Z,17.24
2018-08-24T05:26:25.117Z,17.29
2018-08-24T05:27:25.114Z,17.29
2018-08-24T05:28:25.113Z,17.30
2018-08-24T05:29:25.113Z,17.31
2018-08-24T05:30:25.115Z,17.31
2018-08-24T05:31:25.115Z,17.27
2018-08-24T05:32:25.121Z,17.27
2018-08-24T05:33:25.116Z,17.24
2018-08-24T05:34:25.124Z,17.34
2018-08-24T05:35:25.117Z,17.30
2018-08-24T05:36:25.117Z,17.39
2018-08-24T05:37:25.118Z,17.44
2018-08-24T05:38:25.119Z,17.44
2018-08-24T05:39:25.120Z,17.31
2018-08-24T05:40:25.120Z,17.26
2018-08-24T05:41:25.186Z,17.36
2018-08-24T05:42:25.120Z,17.39
2018-08-24T05:43:25.122Z,17.27
2018-08-24T05:44:25.122Z,17.30
2018-08-24T05:45:25.122Z,17.34
2018-08-24T05:46:25.123Z,17.44
2018-08-24T05:47:25.123Z,17.44
2018-08-24T05:48:25.124Z,17.42
2018-08-24T05:49:25.133Z,17.45
2018-08-24T05:50:25.125Z,17.46
2018-08-24T05:51:25.126Z,17.44
2018-08-24T05:52:25.127Z,17.39
2018-08-24T05:53:25.128Z,17.48
2018-08-24T05:54:25.127Z,17.42
2018-08-24T05:55:25.127Z,17.44
2018-08-24T05:56:25.131Z,17.44
2018-08-24T05:57:25.127Z,17.38
2018-08-24T05:58:25.131Z,17.38
2018-08-24T05:59:25.131Z,17.42
2018-08-24T06:00:25.134Z,17.30
2018-08-24T06:01:25.131Z,17.39
2018-08-24T06:02:25.133Z,17.36
2018-08-24T06:03:25.134Z,17.42
2018-08-24T06:04:25.133Z,17.36
2018-08-24T06:05:25.135Z,17.33
2018-08-24T06:06:25.135Z,17.49
2018-08-24T06:07:25.136Z,17.48
2018-08-24T06:08:25.139Z,17.42
2018-08-24T06:09:25.137Z,17.41
2018-08-24T06:10:25.142Z,17.44
2018-08-24T06:11:25.137Z,17.42
2018-08-24T06:12:25.139Z,17.45
2018-08-24T06:13:25.139Z,17.44
2018-08-24T06:14:25.138Z,17.56
2018-08-24T06:15:25.143Z,17.52
2018-08-24T06:16:25.142Z,17.59
2018-08-24T06:17:25.140Z,17.57
2018-08-24T06:18:25.141Z,17.52
2018-08-24T06:19:25.143Z,17.67
2018-08-24T06:20:25.143Z,17.67
2018-08-24T06:21:25.152Z,17.80
2018-08-24T06:22:25.144Z,17.83
2018-08-24T06:23:25.144Z,17.90
2018-08-24T06:24:25.184Z,18.05
2018-08-24T06:25:25.146Z,18.23
2018-08-24T06:26:25.146Z,18.40
2018-08-24T06:27:25.147Z,18.47
2018-08-24T06:28:25.153Z,18.41
2018-08-24T06:29:25.153Z,18.60
2018-08-24T06:30:25.154Z,18.70
2018-08-24T06:31:25.154Z,18.56
2018-08-24T06:32:25.150Z,18.63
2018-08-24T06:33:25.153Z,18.71
2018-08-24T06:34:25.161Z,18.89
2018-08-24T06:35:25.154Z,18.98
2018-08-24T06:36:25.158Z,19.07
2018-08-24T06:37:25.182Z,18.93
2018-08-24T06:38:25.185Z,19.00
2018-08-24T06:39:25.177Z,18.95
2018-08-24T06:40:25.160Z,19.04
2018-08-24T06:41:25.159Z,19.02
2018-08-24T06:42:25.163Z,19.12
2018-08-24T06:43:25.161Z,19.04
2018-08-24T06:44:25.162Z,19.02
2018-08-24T06:45:25.162Z,18.86
2018-08-24T06:46:25.165Z,18.99
2018-08-24T06:47:25.262Z,19.04
2018-08-24T06:48:25.169Z,18.88
2018-08-24T06:49:25.171Z,18.58
2018-08-24T06:50:25.171Z,18.52
2018-08-24T06:51:25.171Z,18.47
2018-08-24T06:52:25.174Z,18.31
2018-08-24T06:53:25.293Z,18.18
2018-08-24T06:54:25.176Z,18.05
2018-08-24T06:55:25.177Z,17.83
2018-08-24T06:56:25.178Z,17.82
2018-08-24T06:57:25.178Z,17.83
2018-08-24T06:58:25.236Z,17.74
2018-08-24T06:59:25.183Z,17.70
2018-08-24T07:00:25.184Z,17.78
2018-08-24T07:01:25.185Z,17.86
2018-08-24T07:02:25.185Z,17.80
2018-08-24T07:03:25.188Z,17.83
2018-08-24T07:04:25.189Z,17.89
2018-08-24T07:05:25.188Z,17.89
2018-08-24T07:06:25.191Z,17.87
2018-08-24T07:07:25.192Z,17.87
2018-08-24T07:08:25.193Z,17.85
2018-08-24T07:09:25.208Z,17.87
2018-08-24T07:10:25.196Z,17.92
2018-08-24T07:11:25.197Z,17.94
2018-08-24T07:12:25.200Z,17.87
2018-08-24T07:13:25.198Z,17.83
2018-08-24T07:14:25.199Z,17.87
2018-08-24T07:15:25.200Z,17.85
2018-08-24T07:16:25.202Z,17.79
2018-08-24T07:17:25.202Z,17.87
2018-08-24T07:18:25.203Z,17.83
2018-08-24T07:19:25.205Z,17.92
2018-08-24T07:20:25.206Z,17.85
2018-08-24T07:21:25.207Z,17.80
2018-08-24T07:22:25.207Z,17.79
2018-08-24T07:23:25.209Z,17.80
2018-08-24T07:24:25.216Z,17.78
2018-08-24T07:25:25.211Z,17.78
2018-08-24T07:26:25.212Z,17.80
2018-08-24T07:27:25.214Z,17.79
2018-08-24T07:28:25.215Z,17.78
2018-08-24T07:29:25.214Z,17.74
2018-08-24T07:30:25.217Z,17.72
2018-08-24T07:31:25.217Z,17.78
2018-08-24T07:32:25.219Z,17.90
2018-08-24T07:33:25.218Z,17.85
2018-08-24T07:34:25.221Z,17.92
2018-08-24T07:35:25.221Z,17.83
2018-08-24T07:36:25.223Z,17.90
2018-08-24T07:37:25.224Z,17.83
2018-08-24T07:38:25.225Z,17.80
2018-08-24T07:39:25.225Z,17.86
2018-08-24T07:40:25.227Z,18.05
2018-08-24T07:41:25.260Z,18.00
2018-08-24T07:42:25.228Z,17.95
2018-08-24T07:43:25.230Z,17.94
2018-08-24T07:44:25.231Z,18.00
2018-08-24T07:45:25.231Z,17.74
2018-08-24T07:46:25.234Z,17.80
2018-08-24T07:47:25.233Z,17.92
2018-08-24T07:48:25.234Z,17.80
2018-08-24T07:49:25.237Z,17.67
2018-08-24T07:50:25.236Z,17.79
2018-08-24T07:51:25.237Z,17.74
2018-08-24T07:52:25.238Z,17.57
2018-08-24T07:53:25.237Z,17.56
2018-08-24T07:54:25.251Z,17.67
2018-08-24T07:55:25.243Z,17.63
2018-08-24T07:56:25.247Z,17.74
2018-08-24T07:57:25.242Z,17.92
2018-08-24T07:58:25.243Z,17.87
2018-08-24T07:59:25.244Z,17.85
2018-08-24T08:00:25.245Z,17.89
2018-08-24T08:01:25.244Z,18.05
2018-08-24T08:02:25.246Z,18.15
2018-08-24T08:03:25.247Z,18.22
2018-08-24T08:04:25.247Z,18.04
2018-08-24T08:05:25.313Z,18.18
2018-08-24T08:06:25.249Z,18.00
2018-08-24T08:07:25.251Z,18.03
2018-08-24T08:08:25.251Z,18.10
2018-08-24T08:09:25.253Z,18.33
2018-08-24T08:10:25.254Z,18.33
2018-08-24T08:11:25.254Z,18.35
2018-08-24T08:12:25.281Z,18.55
2018-08-24T08:13:25.256Z,18.75
2018-08-24T08:14:25.258Z,18.80
2018-08-24T08:15:25.259Z,18.52
2018-08-24T08:16:25.261Z,18.49
2018-08-24T08:17:26.677Z,18.56
2018-08-24T08:18:25.313Z,18.71
2018-08-24T08:19:25.264Z,18.83
2018-08-24T08:20:25.267Z,18.56
2018-08-24T08:21:25.267Z,18.74
2018-08-24T08:22:25.270Z,18.98
2018-08-24T08:23:25.272Z,19.02
2018-08-24T08:24:25.274Z,19.26
2018-08-24T08:25:25.275Z,19.52
2018-08-24T08:26:25.278Z,19.47
2018-08-24T08:27:25.280Z,19.74
2018-08-24T08:28:25.283Z,20.00
2018-08-24T08:29:25.298Z,20.04
2018-08-24T08:30:25.288Z,20.39
2018-08-24T08:31:25.291Z,20.34
2018-08-24T08:32:25.295Z,19.85
2018-08-24T08:33:25.297Z,19.89
2018-08-24T08:34:25.300Z,19.94
2018-08-24T08:35:25.308Z,19.69
2018-08-24T08:36:25.309Z,19.37
2018-08-24T08:37:25.313Z,19.79
2018-08-24T08:38:25.318Z,19.69
2018-08-24T08:39:25.323Z,19.71
2018-08-24T08:40:25.326Z,19.94
2018-08-24T08:41:25.333Z,20.21
2018-08-24T08:42:25.340Z,19.99
2018-08-24T08:43:25.340Z,20.40
2018-08-24T08:44:25.342Z,20.84
2018-08-24T08:45:25.405Z,20.58
2018-08-24T08:46:25.352Z,21.55
2018-08-24T08:47:25.358Z,22.18
2018-08-24T08:48:25.361Z,23.05
2018-08-24T08:49:25.376Z,23.43
2018-08-24T08:50:25.372Z,23.05
2018-08-24T08:51:25.377Z,22.57
2018-08-24T08:52:25.384Z,22.55
2018-08-24T08:53:25.403Z,22.91
2018-08-24T08:54:25.396Z,23.05
2018-08-24T08:55:25.404Z,23.00
2018-08-24T08:56:25.409Z,22.72
2018-08-24T08:57:25.419Z,23.28
2018-08-24T08:58:25.425Z,23.71
2018-08-24T08:59:25.434Z,23.74
2018-08-24T09:00:25.443Z,23.41
2018-08-24T09:01:25.450Z,23.88
2018-08-24T09:02:25.459Z,24.45
2018-08-24T09:03:25.467Z,24.55
2018-08-24T09:04:25.480Z,24.50
2018-08-24T09:05:25.486Z,24.01
2018-08-24T09:06:25.553Z,24.38
2018-08-24T09:07:25.506Z,23.65
2018-08-24T09:08:25.516Z,22.06
2018-08-24T09:09:25.526Z,21.37
2018-08-24T09:10:25.541Z,20.66
2018-08-24T09:11:25.547Z,20.60
2018-08-24T09:12:25.556Z,20.60
2018-08-24T09:13:25.567Z,21.32
2018-08-24T09:14:25.594Z,20.72
2018-08-24T09:15:25.586Z,20.77
2018-08-24T09:16:25.595Z,20.21
2018-08-24T09:17:25.609Z,20.66
2018-08-24T09:18:25.635Z,20.85
2018-08-24T09:19:25.625Z,20.72
2018-08-24T09:20:25.632Z,20.25
2018-08-24T09:21:25.639Z,20.14
2018-08-24T09:22:25.648Z,20.22
2018-08-24T09:23:25.654Z,19.67
2018-08-24T09:24:25.663Z,19.79
2018-08-24T09:25:25.684Z,19.92
2018-08-24T09:26:25.680Z,20.93
2018-08-24T09:27:25.688Z,22.02
2018-08-24T09:28:25.692Z,22.80
2018-08-24T09:29:25.701Z,23.18
2018-08-24T09:30:25.706Z,23.31
2018-08-24T09:31:25.713Z,24.23
2018-08-24T09:32:25.807Z,24.28
2018-08-24T09:33:25.728Z,24.35
2018-08-24T09:34:25.735Z,23.68
2018-08-24T09:35:25.743Z,24.10
2018-08-24T09:36:25.759Z,23.86
2018-08-24T09:37:25.770Z,23.69
2018-08-24T09:38:25.771Z,24.06
2018-08-24T09:39:25.777Z,24.16
2018-08-24T09:40:25.786Z,23.66
2018-08-24T09:41:25.796Z,22.38
2018-08-24T09:42:25.805Z,22.30
2018-08-24T09:43:25.815Z,22.00
2018-08-24T09:44:25.825Z,23.40
2018-08-24T09:45:25.833Z,23.10
2018-08-24T09:46:25.843Z,23.81
2018-08-24T09:47:25.852Z,23.98
2018-08-24T09:48:25.862Z,23.63
2018-08-24T09:49:25.872Z,23.88
2018-08-24T09:50:25.880Z,24.68
2018-08-24T09:51:25.897Z,24.40
2018-08-24T09:52:25.902Z,24.23
2018-08-24T09:53:25.910Z,24.68
2018-08-24T09:54:25.922Z,24.40
2018-08-24T09:55:25.932Z,24.58
2018-08-24T09:56:25.943Z,25.08
2018-08-24T09:57:25.952Z,24.81
2018-08-24T09:58:25.964Z,23.51
2018-08-24T09:59:25.974Z,23.78
2018-08-24T10:00:25.986Z,22.60
2018-08-24T10:01:25.996Z,22.63
2018-08-24T10:02:26.006Z,22.11
2018-08-24T10:03:26.017Z,21.62
2018-08-24T10:04:26.030Z,21.14
2018-08-24T10:05:26.037Z,20.92
2018-08-24T10:06:26.145Z,22.47
2018-08-24T10:07:26.058Z,23.28
2018-08-24T10:08:26.069Z,22.93
2018-08-24T10:09:26.077Z,22.00
2018-08-24T10:10:26.089Z,21.29
2018-08-24T10:11:26.097Z,20.95
2018-08-24T10:12:26.106Z,20.96
2018-08-24T10:13:26.174Z,20.92
2018-08-24T10:14:26.124Z,20.66
2018-08-24T10:15:26.133Z,20.43
2018-08-24T10:16:26.143Z,20.34
2018-08-24T10:17:26.150Z,20.55
2018-08-24T10:18:26.158Z,20.51
2018-08-24T10:19:26.168Z,20.92
2018-08-24T10:20:26.179Z,22.08
2018-08-24T10:21:26.183Z,22.48
2018-08-24T10:22:26.188Z,22.75
2018-08-24T10:23:26.197Z,22.73
2018-08-24T10:24:26.205Z,23.50
2018-08-24T10:25:26.211Z,24.02
2018-08-24T10:26:26.218Z,24.14
2018-08-24T10:27:26.229Z,24.29
2018-08-24T10:28:26.235Z,24.16
2018-08-24T10:29:26.282Z,24.42
2018-08-24T10:30:26.251Z,23.78
2018-08-24T10:31:26.259Z,23.44
2018-08-24T10:32:26.269Z,22.02
2018-08-24T10:33:26.278Z,21.83
2018-08-24T10:34:26.297Z,22.06
2018-08-24T10:35:26.294Z,22.02
2018-08-24T10:36:26.301Z,22.36
2018-08-24T10:37:26.310Z,22.87
2018-08-24T10:38:26.318Z,22.06
2018-08-24T10:39:26.327Z,22.26
2018-08-24T10:40:26.337Z,22.14
2018-08-24T10:41:26.341Z,22.14
2018-08-24T10:42:26.357Z,22.41
2018-08-24T10:43:26.366Z,22.69
2018-08-24T10:44:26.365Z,22.76
2018-08-24T10:45:26.373Z,23.00
2018-08-24T10:46:26.383Z,23.05
2018-08-24T10:47:26.470Z,22.78
2018-08-24T10:48:26.459Z,22.10
2018-08-24T10:49:26.477Z,22.23
2018-08-24T10:50:26.411Z,22.41
2018-08-24T10:51:26.419Z,22.23
2018-08-24T10:52:26.424Z,22.22
2018-08-24T10:53:26.433Z,21.96
2018-08-24T10:54:26.439Z,22.20
2018-08-24T10:55:26.446Z,22.43
2018-08-24T10:56:26.457Z,22.23
2018-08-24T10:57:26.459Z,22.28
2018-08-24T10:58:26.467Z,21.92
2018-08-24T10:59:26.471Z,21.88
2018-08-24T11:00:26.480Z,21.75
2018-08-24T11:01:26.486Z,21.55
2018-08-24T11:02:26.492Z,21.29
2018-08-24T11:03:26.498Z,21.09
2018-08-24T11:04:26.504Z,21.15
2018-08-24T11:05:26.518Z,21.14
2018-08-24T11:06:26.517Z,21.14
2018-08-24T11:07:26.588Z,21.17
2018-08-24T11:08:26.528Z,21.67
2018-08-24T11:09:26.534Z,22.02
2018-08-24T11:10:26.539Z,22.25
2018-08-24T11:11:26.544Z,22.32
2018-08-24T11:12:26.551Z,22.28
2018-08-24T11:13:26.555Z,21.54
2018-08-24T11:14:26.561Z,21.27
2018-08-24T11:15:26.565Z,21.07
2018-08-24T11:16:26.573Z,21.12
2018-08-24T11:17:26.576Z,20.58
2018-08-24T11:18:26.581Z,20.60
2018-08-24T11:19:26.588Z,20.70
2018-08-24T11:20:26.592Z,21.09
2018-08-24T11:21:26.604Z,21.45
2018-08-24T11:22:26.602Z,21.51
2018-08-24T11:23:26.606Z,21.80
2018-08-24T11:24:26.612Z,21.61
2018-08-24T11:25:26.616Z,21.12
2018-08-24T11:26:26.621Z,20.97
2018-08-24T11:27:26.628Z,21.18
2018-08-24T11:28:26.629Z,21.40
2018-08-24T11:29:26.696Z,21.39
2018-08-24T11:30:26.639Z,21.37
2018-08-24T11:31:26.643Z,21.69
2018-08-24T11:32:26.648Z,21.85
2018-08-24T11:33:26.652Z,21.83
2018-08-24T11:34:26.657Z,21.66
2018-08-24T11:35:26.666Z,21.61
2018-08-24T11:36:26.679Z,21.37
2018-08-24T11:37:26.671Z,21.73
2018-08-24T11:38:26.675Z,21.80
2018-08-24T11:39:26.678Z,21.67
2018-08-24T11:40:26.686Z,21.51
2018-08-24T11:41:26.686Z,21.25
2018-08-24T11:42:26.692Z,21.15
2018-08-24T11:43:26.697Z,21.40
2018-08-24T11:44:26.701Z,21.55
2018-08-24T11:45:26.755Z,21.70
2018-08-24T11:46:26.710Z,21.88
2018-08-24T11:47:26.714Z,22.04
2018-08-24T11:48:26.719Z,22.15
2018-08-24T11:49:26.727Z,22.13
2018-08-24T11:50:26.726Z,22.38
2018-08-24T11:51:26.732Z,22.53
2018-08-24T11:52:26.735Z,22.73
2018-08-24T11:53:26.739Z,22.51
2018-08-24T11:54:26.776Z,22.51
2018-08-24T11:55:26.746Z,22.68
2018-08-24T11:56:26.752Z,22.43
2018-08-24T11:57:26.756Z,22.47
2018-08-24T11:58:26.760Z,22.63
2018-08-24T11:59:26.765Z,22.55
2018-08-24T12:00:26.771Z,22.66
2018-08-24T12:01:26.773Z,22.87
2018-08-24T12:02:26.779Z,22.81
2018-08-24T12:03:26.784Z,22.84
2018-08-24T12:04:26.790Z,22.66
2018-08-24T12:05:26.794Z,22.73
2018-08-24T12:06:26.797Z,22.62
2018-08-24T12:07:26.801Z,22.15
2018-08-24T12:08:26.900Z,21.75
2018-08-24T12:09:26.810Z,21.40
2018-08-24T12:10:26.814Z,21.48
2018-08-24T12:11:26.819Z,21.24
2018-08-24T12:12:26.835Z,20.93
2018-08-24T12:13:26.827Z,20.81
2018-08-24T12:14:26.832Z,20.90
2018-08-24T12:15:26.837Z,21.00
2018-08-24T12:16:26.846Z,20.81
2018-08-24T12:17:26.846Z,20.80
2018-08-24T12:18:26.882Z,20.75
2018-08-24T12:19:26.855Z,20.75
2018-08-24T12:20:26.859Z,20.87
2018-08-24T12:21:26.873Z,21.27
2018-08-24T12:22:26.866Z,21.37
2018-08-24T12:23:26.873Z,21.24
2018-08-24T12:24:26.895Z,21.32
2018-08-24T12:25:26.879Z,21.27
2018-08-24T12:26:26.882Z,21.67
2018-08-24T12:27:26.887Z,21.80
2018-08-24T12:28:26.894Z,21.69
2018-08-24T12:29:26.892Z,21.22
2018-08-24T12:30:26.897Z,21.09
2018-08-24T12:31:26.902Z,21.09
2018-08-24T12:32:26.905Z,21.29
2018-08-24T12:33:26.909Z,21.39
2018-08-24T12:34:26.913Z,21.40
2018-08-24T12:35:26.917Z,21.14
2018-08-24T12:36:26.958Z,20.99
2018-08-24T12:37:26.924Z,20.95
2018-08-24T12:38:26.929Z,20.74
2018-08-24T12:39:26.931Z,21.14
2018-08-24T12:40:26.935Z,21.36
2018-08-24T12:41:26.940Z,21.62
2018-08-24T12:42:26.942Z,21.52
2018-08-24T12:43:26.965Z,21.64
2018-08-24T12:44:26.955Z,21.83
2018-08-24T12:45:26.952Z,21.76
2018-08-24T12:46:26.957Z,21.69
2018-08-24T12:47:26.964Z,21.64
2018-08-24T12:48:26.966Z,21.61
2018-08-24T12:49:26.984Z,21.62
2018-08-24T12:50:26.971Z,21.76
2018-08-24T12:51:26.975Z,21.70
2018-08-24T12:52:26.988Z,21.70
2018-08-24T12:53:26.983Z,21.79